CheckWX is a tool to help pilots better visualize weather data.  It is not intended as a substitute for an official pre-flight weather briefing.

12:16:07 UTC

LFPB METAR
Paris-Le Bourget Airport
Paris, France
Current

46 mins ago

LFPB 021130Z AUTO 26010KT 220V280 9999 FEW031 BKN039 BKN045 19/11 Q1014 TEMPO 29015G25KT 4000 -SHRA SCT040TCU
Observed
Jul-2 @ 11:30 UTC
Wind
  • 260° at 10 KTS
Visibility
10,000+ meters
Flight Rules
VFR
Cloud Levels
  • Few at 3,100' AGL
  • Broken at 3,900' AGL
  • Broken at 4,500' AGL
Temperature
19°C / 66°F
Dewpoint
11°C / 52°F
Humidity
60%
Altimeter
29.94" Hg
Pressure
1013.92 hPa
Previous

1 hour ago

LFPB 021100Z AUTO 26008KT 230V300 9999 BKN031 BKN038 OVC046 19/12 Q1014 NOSIG
Observed
Jul-2 @ 11:00 UTC
Wind
  • 260° at 8 KTS
Visibility
10,000+ meters
Flight Rules
VFR
Cloud Levels
  • Broken at 3,100' AGL
  • Broken at 3,800' AGL
  • Overcast at 4,600' AGL
Temperature
19°C / 66°F
Dewpoint
12°C / 54°F
Humidity
64%
Altimeter
29.94" Hg
Pressure
1013.92 hPa
Previous

2 hours ago

LFPB 021030Z AUTO 30006KT 270V330 9999 BKN029 BKN038 BKN072 18/12 Q1014 NOSIG
Observed
Jul-2 @ 10:30 UTC
Wind
  • 300° at 6 KTS
Visibility
10,000+ meters
Flight Rules
MVFR
Cloud Levels
  • Broken at 2,900' AGL
  • Broken at 3,800' AGL
  • Broken at 7,200' AGL
Temperature
18°C / 64°F
Dewpoint
12°C / 54°F
Humidity
68%
Altimeter
29.94" Hg
Pressure
1013.92 hPa